Wetterdaten: Woche 11.07.16 - 17.07.16 (KW28)
Datum Zeit Temp. I. Temp. A. Feuchte I. Feuchte A. Luftdruck Regen Wind Richtung Sonnenschein UV Solar Taupunkt Windchill Windben
11.07.2016 00:00 25,5 C 18,9 C 55 % 83 % 1010,5 hPa 0,0 l/m 0,0 km/h (0 Bft) N 0,00 h 0,0 UV-I 0 W/m 16,0 C 18,9 C 0,0 km/h (0 Bft)
11.07.2016 01:00 25,4 C 17,8 C 55 % 87 % 1010,2 hPa 0,0 l/m 0,0 km/h (0 Bft) N 0,00 h 0,0 UV-I 0 W/m 15,7 C 17,8 C 0,0 km/h (0 Bft)
11.07.2016 02:00 25,4 C 17,1 C 56 % 90 % 1009,9 hPa 0,0 l/m 0,0 km/h (0 Bft) N 0,00 h 0,0 UV-I 0 W/m 15,4 C 17,1 C 0,0 km/h (0 Bft)
11.07.2016 03:00 25,3 C 16,7 C 56 % 90 % 1009,7 hPa 0,0 l/m 0,0 km/h (0 Bft) N 0,00 h 0,0 UV-I 0 W/m 15,1 C 16,7 C 0,0 km/h (0 Bft)
11.07.2016 04:00 25,4 C 16,4 C 56 % 91 % 1009,7 hPa 0,0 l/m 0,0 km/h (0 Bft) N 0,00 h 0,0 UV-I 0 W/m 15,0 C 16,4 C 0,0 km/h (0 Bft)
11.07.2016 05:00 25,3 C 16,1 C 56 % 91 % 1009,8 hPa 0,0 l/m 0,0 km/h (0 Bft) N 0,00 h 0,0 UV-I 15 W/m 14,7 C 16,1 C 0,0 km/h (0 Bft)
11.07.2016 06:00 25,3 C 17,1 C 56 % 90 % 1010,0 hPa 0,0 l/m 0,0 km/h (0 Bft) N 0,00 h 0,0 UV-I 42 W/m 15,5 C 17,1 C 0,0 km/h (0 Bft)
11.07.2016 07:00 25,3 C 20,0 C 56 % 83 % 1010,0 hPa 0,0 l/m 0,0 km/h (0 Bft) SW 0,13 h 0,7 UV-I 113 W/m 17,1 C 20,0 C 0,3 km/h (0 Bft)
11.07.2016 08:00 25,4 C 22,4 C 56 % 75 % 1010,0 hPa 0,0 l/m 0,9 km/h (0 Bft) S 0,80 h 1,3 UV-I 226 W/m 17,8 C 22,4 C 2,7 km/h (1 Bft)
11.07.2016 09:00 25,7 C 23,9 C 57 % 68 % 1010,3 hPa 0,0 l/m 5,0 km/h (1 Bft) SW 1,00 h 2,2 UV-I 371 W/m 17,6 C 23,8 C 9,9 km/h (2 Bft)
11.07.2016 10:00 25,7 C 25,9 C 57 % 61 % 1010,3 hPa 0,0 l/m 4,9 km/h (1 Bft) SW 1,00 h 4,0 UV-I 648 W/m 17,8 C 25,8 C 11,1 km/h (2 Bft)
11.07.2016 11:00 25,9 C 27,9 C 57 % 53 % 1010,2 hPa 0,0 l/m 7,6 km/h (2 Bft) S 1,00 h 5,5 UV-I 751 W/m 17,3 C 27,6 C 15,9 km/h (3 Bft)
11.07.2016 12:00 26,0 C 29,2 C 57 % 44 % 1010,1 hPa 0,0 l/m 9,4 km/h (2 Bft) SW 1,00 h 6,3 UV-I 787 W/m 15,7 C 28,8 C 16,8 km/h (3 Bft)
11.07.2016 13:00 25,9 C 29,7 C 57 % 42 % 1010,0 hPa 0,0 l/m 9,9 km/h (2 Bft) W-SW 1,00 h 6,0 UV-I 724 W/m 15,6 C 29,4 C 19,7 km/h (3 Bft)
11.07.2016 14:00 25,9 C 29,8 C 57 % 42 % 1009,6 hPa 0,0 l/m 7,9 km/h (2 Bft) SW 1,00 h 5,4 UV-I 655 W/m 15,3 C 29,6 C 16,1 km/h (3 Bft)
11.07.2016 15:00 25,9 C 30,6 C 57 % 39 % 1009,2 hPa 0,0 l/m 8,5 km/h (2 Bft) W-SW 1,00 h 4,9 UV-I 721 W/m 14,8 C 30,4 C 17,5 km/h (3 Bft)
11.07.2016 16:00 25,9 C 29,9 C 57 % 41 % 1009,0 hPa 0,0 l/m 7,3 km/h (2 Bft) W-SW 1,00 h 2,9 UV-I 430 W/m 15,0 C 29,7 C 15,1 km/h (3 Bft)
11.07.2016 17:00 26,3 C 28,7 C 54 % 45 % 1009,2 hPa 0,0 l/m 7,2 km/h (2 Bft) W-SW 0,67 h 1,5 UV-I 237 W/m 15,4 C 28,5 C 14,7 km/h (3 Bft)
11.07.2016 18:00 26,4 C 25,4 C 55 % 59 % 1010,1 hPa 1,2 l/m 8,5 km/h (2 Bft) W 0,00 h 0,0 UV-I 17 W/m 16,5 C 24,9 C 17,7 km/h (3 Bft)
11.07.2016 19:00 26,3 C 20,3 C 56 % 89 % 1010,2 hPa 1,2 l/m 1,3 km/h (1 Bft) SO 0,00 h 0,0 UV-I 61 W/m 18,4 C 20,3 C 3,3 km/h (1 Bft)
11.07.2016 20:00 26,1 C 19,7 C 57 % 91 % 1010,0 hPa 0,0 l/m 0,0 km/h (0 Bft) SO 0,00 h 0,0 UV-I 17 W/m 18,2 C 19,7 C 0,2 km/h (0 Bft)
11.07.2016 21:00 26,0 C 19,4 C 58 % 92 % 1010,8 hPa 0,0 l/m 0,0 km/h (0 Bft) N 0,00 h 0,0 UV-I 0 W/m 18,1 C 19,4 C 0,0 km/h (0 Bft)
11.07.2016 22:00 25,7 C 18,9 C 60 % 94 % 1011,3 hPa 0,0 l/m 0,0 km/h (0 Bft) S 0,00 h 0,0 UV-I 0 W/m 17,8 C 18,9 C 0,3 km/h (0 Bft)
11.07.2016 23:00 25,6 C 18,9 C 60 % 94 % 1011,5 hPa 0,0 l/m 1,8 km/h (1 Bft) S 0,00 h 0,0 UV-I 0 W/m 17,9 C 18,8 C 5,9 km/h (2 Bft)
12.07.2016 00:00 25,6 C 18,9 C 60 % 94 % 1011,5 hPa 0,0 l/m 0,7 km/h (0 Bft) S 0,00 h 0,0 UV-I 0 W/m 17,9 C 18,9 C 2,5 km/h (1 Bft)
12.07.2016 01:00 25,6 C 18,8 C 60 % 94 % 1011,5 hPa 0,4 l/m 0,2 km/h (0 Bft) S-SW 0,00 h 0,0 UV-I 0 W/m 17,8 C 18,8 C 0,7 km/h (0 Bft)
12.07.2016 02:00 25,6 C 18,3 C 60 % 95 % 1011,4 hPa 0,0 l/m 0,0 km/h (0 Bft) N 0,00 h 0,0 UV-I 0 W/m 17,6 C 18,3 C 0,0 km/h (0 Bft)
12.07.2016 03:00 25,6 C 18,1 C 60 % 96 % 1011,3 hPa 0,0 l/m 0,0 km/h (0 Bft) N 0,00 h 0,0 UV-I 0 W/m 17,4 C 18,1 C 0,2 km/h (0 Bft)
12.07.2016 04:00 25,6 C 17,8 C 60 % 95 % 1011,2 hPa 0,0 l/m 0,0 km/h (0 Bft) SW 0,00 h 0,0 UV-I 0 W/m 17,0 C 17,8 C 0,2 km/h (0 Bft)
12.07.2016 05:00 25,6 C 17,6 C 60 % 95 % 1011,2 hPa 0,0 l/m 0,1 km/h (0 Bft) SW 0,00 h 0,0 UV-I 7 W/m 16,8 C 17,6 C 0,8 km/h (0 Bft)
12.07.2016 06:00 25,6 C 17,2 C 60 % 95 % 1011,6 hPa 0,0 l/m 0,3 km/h (0 Bft) S 0,00 h 0,0 UV-I 26 W/m 16,4 C 17,2 C 1,5 km/h (1 Bft)
12.07.2016 07:00 25,6 C 17,0 C 60 % 95 % 1011,7 hPa 0,0 l/m 0,0 km/h (0 Bft) N 0,00 h 0,6 UV-I 63 W/m 16,2 C 17,0 C 0,1 km/h (0 Bft)
12.07.2016 08:00 25,2 C 17,7 C 60 % 91 % 1012,0 hPa 0,0 l/m 0,7 km/h (0 Bft) W-SW 0,58 h 1,2 UV-I 191 W/m 16,2 C 17,7 C 1,8 km/h (1 Bft)
12.07.2016 09:00 25,2 C 19,3 C 58 % 77 % 1012,1 hPa 0,0 l/m 3,2 km/h (1 Bft) W-SW 1,00 h 2,7 UV-I 428 W/m 15,1 C 19,2 C 7,4 km/h (2 Bft)
12.07.2016 10:00 25,2 C 20,6 C 56 % 70 % 1012,0 hPa 0,0 l/m 3,6 km/h (1 Bft) W 1,00 h 3,2 UV-I 439 W/m 15,0 C 20,4 C 7,8 km/h (2 Bft)
12.07.2016 11:00 25,2 C 20,3 C 55 % 68 % 1012,0 hPa 0,0 l/m 2,3 km/h (1 Bft) W-SW 0,98 h 2,5 UV-I 263 W/m 14,1 C 20,2 C 6,9 km/h (2 Bft)
12.07.2016 12:00 25,1 C 19,9 C 55 % 69 % 1012,1 hPa 0,0 l/m 2,3 km/h (1 Bft) W-SW 0,68 h 1,8 UV-I 174 W/m 13,9 C 19,9 C 6,3 km/h (2 Bft)
12.07.2016 13:00 25,3 C 19,8 C 55 % 71 % 1012,1 hPa 0,0 l/m 1,9 km/h (1 Bft) W 0,68 h 1,7 UV-I 164 W/m 14,3 C 19,7 C 5,8 km/h (2 Bft)
12.07.2016 14:00 25,3 C 20,1 C 55 % 70 % 1012,1 hPa 0,0 l/m 3,1 km/h (1 Bft) W-SW 0,88 h 3,1 UV-I 304 W/m 14,4 C 20,0 C 7,5 km/h (2 Bft)
12.07.2016 15:00 25,5 C 20,6 C 55 % 66 % 1011,7 hPa 0,0 l/m 1,4 km/h (1 Bft) W-SW 1,00 h 2,2 UV-I 238 W/m 14,0 C 20,6 C 4,4 km/h (1 Bft)
12.07.2016 16:00 25,6 C 20,3 C 54 % 67 % 1011,2 hPa 0,0 l/m 1,3 km/h (1 Bft) S 0,57 h 1,4 UV-I 168 W/m 14,0 C 20,3 C 4,2 km/h (1 Bft)
12.07.2016 17:00 25,6 C 19,5 C 54 % 73 % 1011,7 hPa 0,0 l/m 1,2 km/h (1 Bft) S 0,00 h 0,7 UV-I 76 W/m 14,5 C 19,5 C 4,4 km/h (1 Bft)
12.07.2016 18:00 25,7 C 18,9 C 54 % 76 % 1011,8 hPa 0,0 l/m 0,8 km/h (0 Bft) W 0,00 h 0,0 UV-I 52 W/m 14,5 C 18,9 C 1,9 km/h (1 Bft)
12.07.2016 19:00 25,8 C 18,4 C 55 % 77 % 1012,1 hPa 0,2 l/m 0,5 km/h (0 Bft) W-SW 0,00 h 0,0 UV-I 24 W/m 14,3 C 18,4 C 1,3 km/h (1 Bft)
12.07.2016 20:00 25,7 C 17,0 C 55 % 88 % 1011,6 hPa 0,2 l/m 0,7 km/h (0 Bft) W 0,00 h 0,0 UV-I 9 W/m 14,9 C 17,0 C 2,0 km/h (1 Bft)
12.07.2016 21:00 25,7 C 16,4 C 56 % 91 % 1011,8 hPa 0,0 l/m 0,0 km/h (0 Bft) N 0,00 h 0,0 UV-I 5 W/m 14,9 C 16,4 C 0,0 km/h (0 Bft)
12.07.2016 22:00 25,7 C 16,0 C 56 % 91 % 1012,0 hPa 0,0 l/m 0,0 km/h (0 Bft) N 0,00 h 0,0 UV-I 0 W/m 14,6 C 16,0 C 0,0 km/h (0 Bft)
12.07.2016 23:00 25,6 C 15,8 C 56 % 92 % 1012,1 hPa 0,0 l/m 0,0 km/h (0 Bft) N 0,00 h 0,0 UV-I 0 W/m 14,5 C 15,8 C 0,0 km/h (0 Bft)
13.07.2016 00:00 25,4 C 15,7 C 56 % 92 % 1012,0 hPa 0,0 l/m 0,0 km/h (0 Bft) N 0,00 h 0,0 UV-I 0 W/m 14,4 C 15,7 C 0,0 km/h (0 Bft)
13.07.2016 01:00 25,4 C 15,2 C 57 % 94 % 1011,9 hPa 0,0 l/m 0,0 km/h (0 Bft) N 0,00 h 0,0 UV-I 0 W/m 14,2 C 15,2 C 0,0 km/h (0 Bft)
13.07.2016 02:00 25,4 C 15,2 C 57 % 95 % 1011,5 hPa 0,0 l/m 0,0 km/h (0 Bft) N 0,00 h 0,0 UV-I 0 W/m 14,3 C 15,2 C 0,0 km/h (0 Bft)
13.07.2016 03:00 25,4 C 15,3 C 57 % 95 % 1011,4 hPa 0,0 l/m 0,0 km/h (0 Bft) W-SW 0,00 h 0,0 UV-I 0 W/m 14,5 C 15,3 C 0,3 km/h (0 Bft)
13.07.2016 04:00 25,3 C 15,3 C 57 % 95 % 1011,5 hPa 0,0 l/m 0,0 km/h (0 Bft) N 0,00 h 0,0 UV-I 0 W/m 14,5 C 15,3 C 0,0 km/h (0 Bft)
13.07.2016 05:00 25,3 C 15,2 C 57 % 95 % 1011,3 hPa 0,0 l/m 0,0 km/h (0 Bft) S-SW 0,00 h 0,0 UV-I 12 W/m 14,4 C 15,2 C 0,1 km/h (0 Bft)
13.07.2016 06:00 25,3 C 15,2 C 58 % 95 % 1011,4 hPa 0,0 l/m 0,2 km/h (0 Bft) S 0,00 h 0,0 UV-I 29 W/m 14,4 C 15,2 C 1,2 km/h (1 Bft)
13.07.2016 07:00 25,3 C 15,5 C 58 % 94 % 1011,6 hPa 0,0 l/m 0,4 km/h (0 Bft) S 0,00 h 0,7 UV-I 58 W/m 14,6 C 15,5 C 1,6 km/h (1 Bft)
13.07.2016 08:00 25,4 C 16,4 C 58 % 91 % 1011,5 hPa 0,0 l/m 2,1 km/h (1 Bft) S 0,42 h 0,9 UV-I 148 W/m 14,9 C 16,4 C 5,1 km/h (1 Bft)
13.07.2016 09:00 25,5 C 16,7 C 58 % 89 % 1011,4 hPa 0,0 l/m 3,9 km/h (1 Bft) S 0,25 h 1,3 UV-I 154 W/m 14,8 C 16,2 C 8,4 km/h (2 Bft)
13.07.2016 10:00 25,4 C 17,4 C 57 % 84 % 1011,8 hPa 0,4 l/m 7,8 km/h (2 Bft) S 0,53 h 2,6 UV-I 301 W/m 14,5 C 16,3 C 14,1 km/h (3 Bft)
13.07.2016 11:00 24,9 C 18,6 C 55 % 78 % 1011,9 hPa 0,0 l/m 5,4 km/h (1 Bft) W-SW 0,98 h 4,9 UV-I 665 W/m 14,7 C 18,1 C 10,2 km/h (2 Bft)
13.07.2016 12:00 24,9 C 19,1 C 54 % 70 % 1011,5 hPa 0,0 l/m 3,3 km/h (1 Bft) W-SW 1,00 h 3,4 UV-I 298 W/m 13,4 C 18,9 C 7,4 km/h (2 Bft)
13.07.2016 13:00 25,1 C 21,6 C 55 % 58 % 1010,8 hPa 0,0 l/m 2,8 km/h (1 Bft) W-SW 1,00 h 6,3 UV-I 882 W/m 12,8 C 21,6 C 6,4 km/h (2 Bft)
13.07.2016 14:00 25,2 C 21,9 C 53 % 51 % 1010,6 hPa 0,0 l/m 3,9 km/h (1 Bft) NW 1,00 h 3,5 UV-I 418 W/m 11,4 C 21,8 C 7,9 km/h (2 Bft)
13.07.2016 15:00 25,2 C 20,8 C 53 % 59 % 1010,4 hPa 0,0 l/m 2,9 km/h (1 Bft) NW 0,63 h 1,8 UV-I 217 W/m 12,6 C 20,7 C 6,9 km/h (2 Bft)
13.07.2016 16:00 25,3 C 18,8 C 54 % 67 % 1010,8 hPa 0,2 l/m 4,9 km/h (1 Bft) W 0,00 h 0,7 UV-I 79 W/m 12,3 C 18,3 C 10,1 km/h (2 Bft)
13.07.2016 17:00 25,3 C 15,5 C 54 % 85 % 1011,5 hPa 0,0 l/m 0,0 km/h (0 Bft) SW 0,00 h 0,6 UV-I 56 W/m 13,0 C 15,5 C 0,3 km/h (0 Bft)
13.07.2016 18:00 25,4 C 14,7 C 54 % 91 % 1011,3 hPa 0,4 l/m 0,2 km/h (0 Bft) S-SO 0,00 h 0,0 UV-I 26 W/m 13,2 C 14,7 C 0,6 km/h (0 Bft)
13.07.2016 19:00 25,4 C 14,2 C 55 % 92 % 1011,6 hPa 0,0 l/m 0,0 km/h (0 Bft) N 0,00 h 0,0 UV-I 26 W/m 12,9 C 14,2 C 0,0 km/h (0 Bft)
13.07.2016 20:00 25,3 C 14,2 C 55 % 93 % 1011,9 hPa 0,0 l/m 0,0 km/h (0 Bft) N 0,00 h 0,0 UV-I 8 W/m 13,1 C 14,2 C 0,0 km/h (0 Bft)
13.07.2016 21:00 25,2 C 13,9 C 55 % 95 % 1012,2 hPa 0,2 l/m 0,0 km/h (0 Bft) N 0,00 h 0,0 UV-I 0 W/m 13,1 C 13,9 C 0,0 km/h (0 Bft)
13.07.2016 22:00 25,3 C 13,5 C 55 % 95 % 1013,0 hPa 1,8 l/m 0,6 km/h (0 Bft) SW 0,00 h 0,0 UV-I 0 W/m 12,7 C 13,5 C 2,6 km/h (1 Bft)
13.07.2016 23:00 25,3 C 12,9 C 55 % 95 % 1013,0 hPa 0,4 l/m 0,0 km/h (0 Bft) N 0,00 h 0,0 UV-I 0 W/m 12,1 C 12,9 C 0,1 km/h (0 Bft)
14.07.2016 00:00 25,1 C 12,8 C 55 % 96 % 1012,6 hPa 0,6 l/m 0,0 km/h (0 Bft) N 0,00 h 0,0 UV-I 0 W/m 12,1 C 12,8 C 0,0 km/h (0 Bft)
14.07.2016 01:00 25,2 C 12,8 C 56 % 96 % 1012,2 hPa 1,2 l/m 0,1 km/h (0 Bft) W-NW 0,00 h 0,0 UV-I 0 W/m 12,1 C 12,8 C 1,1 km/h (1 Bft)
14.07.2016 02:00 25,4 C 12,9 C 56 % 97 % 1011,8 hPa 0,4 l/m 0,3 km/h (0 Bft) W-NW 0,00 h 0,0 UV-I 0 W/m 12,3 C 12,9 C 0,9 km/h (0 Bft)
14.07.2016 03:00 25,4 C 12,8 C 57 % 97 % 1011,3 hPa 1,0 l/m 0,3 km/h (0 Bft) W-NW 0,00 h 0,0 UV-I 0 W/m 12,4 C 12,8 C 1,1 km/h (1 Bft)
14.07.2016 04:00 25,4 C 12,5 C 57 % 96 % 1011,1 hPa 0,4 l/m 1,5 km/h (1 Bft) W-NW 0,00 h 0,0 UV-I 0 W/m 12,0 C 12,5 C 4,8 km/h (1 Bft)
14.07.2016 05:00 25,4 C 12,4 C 57 % 97 % 1011,3 hPa 1,2 l/m 2,3 km/h (1 Bft) NW 0,00 h 0,0 UV-I 5 W/m 11,9 C 12,4 C 6,4 km/h (2 Bft)
14.07.2016 06:00 25,4 C 11,9 C 57 % 96 % 1011,6 hPa 2,0 l/m 8,9 km/h (2 Bft) NW 0,00 h 0,0 UV-I 10 W/m 11,3 C 10,1 C 16,2 km/h (3 Bft)
14.07.2016 07:00 25,3 C 11,4 C 57 % 95 % 1011,7 hPa 1,8 l/m 8,8 km/h (2 Bft) NW 0,00 h 0,0 UV-I 15 W/m 10,6 C 9,7 C 14,8 km/h (3 Bft)
14.07.2016 08:00 25,3 C 11,4 C 57 % 96 % 1011,8 hPa 1,4 l/m 3,5 km/h (1 Bft) NW 0,00 h 0,0 UV-I 46 W/m 10,7 C 11,0 C 6,7 km/h (2 Bft)
14.07.2016 09:00 25,4 C 12,0 C 57 % 96 % 1011,9 hPa 0,4 l/m 2,4 km/h (1 Bft) NW 0,10 h 0,7 UV-I 103 W/m 11,3 C 11,7 C 4,9 km/h (1 Bft)
14.07.2016 10:00 25,1 C 12,5 C 55 % 95 % 1012,3 hPa 0,8 l/m 4,8 km/h (1 Bft) NW 0,25 h 1,0 UV-I 126 W/m 11,7 C 11,9 C 9,2 km/h (2 Bft)
14.07.2016 11:00 25,0 C 12,5 C 55 % 95 % 1012,9 hPa 0,8 l/m 5,7 km/h (1 Bft) W-NW 0,15 h 0,9 UV-I 101 W/m 11,7 C 11,6 C 10,0 km/h (2 Bft)
14.07.2016 12:00 24,9 C 12,1 C 54 % 95 % 1013,6 hPa 0,8 l/m 10,5 km/h (2 Bft) NW 0,42 h 1,9 UV-I 154 W/m 11,3 C 9,6 C 16,5 km/h (3 Bft)
14.07.2016 13:00 24,9 C 11,9 C 54 % 93 % 1014,4 hPa 0,0 l/m 13,7 km/h (3 Bft) NW 0,60 h 1,5 UV-I 159 W/m 10,8 C 8,1 C 20,8 km/h (4 Bft)
14.07.2016 14:00 25,0 C 11,6 C 54 % 92 % 1015,3 hPa 0,0 l/m 10,3 km/h (2 Bft) NW 0,07 h 0,9 UV-I 86 W/m 10,3 C 9,3 C 16,4 km/h (3 Bft)
14.07.2016 15:00 25,0 C 11,6 C 54 % 91 % 1016,1 hPa 0,0 l/m 6,8 km/h (2 Bft) NW 0,05 h 0,8 UV-I 81 W/m 10,3 C 10,3 C 11,8 km/h (2 Bft)
14.07.2016 16:00 25,0 C 12,4 C 54 % 89 % 1016,5 hPa 0,0 l/m 3,6 km/h (1 Bft) W-NW 0,52 h 1,3 UV-I 166 W/m 10,6 C 11,9 C 7,6 km/h (2 Bft)
14.07.2016 17:00 25,0 C 12,9 C 55 % 85 % 1016,9 hPa 0,0 l/m 1,2 km/h (1 Bft) W-NW 0,30 h 0,9 UV-I 137 W/m 10,5 C 12,9 C 4,4 km/h (1 Bft)
14.07.2016 18:00 25,1 C 13,3 C 55 % 82 % 1016,9 hPa 0,0 l/m 0,5 km/h (0 Bft) W-SW 0,35 h 0,9 UV-I 150 W/m 10,3 C 13,3 C 2,0 km/h (1 Bft)
14.07.2016 19:00 25,1 C 13,3 C 55 % 86 % 1016,9 hPa 0,0 l/m 1,1 km/h (1 Bft) W-SW 0,00 h 0,5 UV-I 75 W/m 10,9 C 13,3 C 2,9 km/h (1 Bft)
14.07.2016 20:00 25,1 C 13,2 C 55 % 86 % 1017,2 hPa 0,0 l/m 0,4 km/h (0 Bft) W-SW 0,00 h 0,0 UV-I 23 W/m 10,8 C 13,2 C 1,1 km/h (1 Bft)
14.07.2016 21:00 25,0 C 12,3 C 55 % 88 % 1017,9 hPa 0,0 l/m 0,0 km/h (0 Bft) N 0,00 h 0,0 UV-I 6 W/m 10,4 C 12,3 C 0,0 km/h (0 Bft)
14.07.2016 22:00 25,0 C 11,3 C 54 % 88 % 1018,5 hPa 0,0 l/m 0,0 km/h (0 Bft) N 0,00 h 0,0 UV-I 0 W/m 9,5 C 11,3 C 0,0 km/h (0 Bft)
14.07.2016 23:00 24,8 C 10,2 C 54 % 90 % 1018,9 hPa 0,2 l/m 0,0 km/h (0 Bft) N 0,00 h 0,0 UV-I 0 W/m 8,7 C 10,2 C 0,0 km/h (0 Bft)
15.07.2016 00:00 24,7 C 9,8 C 54 % 92 % 1019,5 hPa 0,0 l/m 0,0 km/h (0 Bft) N 0,00 h 0,0 UV-I 0 W/m 8,5 C 9,8 C 0,0 km/h (0 Bft)
15.07.2016 01:00 24,7 C 9,4 C 55 % 93 % 1020,0 hPa 0,0 l/m 0,0 km/h (0 Bft) N 0,00 h 0,0 UV-I 0 W/m 8,3 C 9,4 C 0,0 km/h (0 Bft)
15.07.2016 02:00 24,7 C 9,2 C 55 % 93 % 1020,3 hPa 0,0 l/m 0,1 km/h (0 Bft) SW 0,00 h 0,0 UV-I 0 W/m 8,2 C 9,2 C 0,6 km/h (0 Bft)
15.07.2016 03:00 24,6 C 9,5 C 55 % 92 % 1020,3 hPa 0,0 l/m 0,3 km/h (0 Bft) W-SW 0,00 h 0,0 UV-I 0 W/m 8,4 C 9,5 C 1,7 km/h (1 Bft)
15.07.2016 04:00 24,6 C 9,9 C 55 % 90 % 1020,5 hPa 0,0 l/m 0,1 km/h (0 Bft) SW 0,00 h 0,0 UV-I 0 W/m 8,4 C 9,9 C 1,1 km/h (1 Bft)
15.07.2016 05:00 24,6 C 9,9 C 55 % 92 % 1021,0 hPa 0,0 l/m 0,0 km/h (0 Bft) N 0,00 h 0,0 UV-I 10 W/m 8,8 C 9,9 C 0,0 km/h (0 Bft)
15.07.2016 06:00 24,5 C 10,1 C 56 % 94 % 1021,4 hPa 0,0 l/m 0,0 km/h (0 Bft) W-SW 0,00 h 0,0 UV-I 15 W/m 9,2 C 10,1 C 0,3 km/h (0 Bft)
15.07.2016 07:00 24,5 C 10,5 C 56 % 94 % 1021,7 hPa 0,0 l/m 0,6 km/h (0 Bft) W-SW 0,00 h 0,5 UV-I 46 W/m 9,6 C 10,5 C 2,5 km/h (1 Bft)
15.07.2016 08:00 24,5 C 11,4 C 55 % 92 % 1022,1 hPa 0,0 l/m 2,4 km/h (1 Bft) W-SW 0,10 h 0,7 UV-I 109 W/m 10,2 C 11,4 C 5,7 km/h (1 Bft)
15.07.2016 09:00 24,4 C 12,5 C 54 % 86 % 1022,7 hPa 0,0 l/m 5,2 km/h (1 Bft) W 0,62 h 1,5 UV-I 207 W/m 10,2 C 12,2 C 10,1 km/h (2 Bft)
15.07.2016 10:00 24,5 C 13,9 C 53 % 77 % 1022,9 hPa 0,0 l/m 5,2 km/h (1 Bft) W-NW 1,00 h 2,4 UV-I 335 W/m 9,8 C 13,6 C 11,0 km/h (2 Bft)
15.07.2016 11:00 24,5 C 13,7 C 52 % 77 % 1023,3 hPa 0,2 l/m 4,7 km/h (1 Bft) W-SW 0,63 h 1,8 UV-I 200 W/m 9,9 C 13,5 C 10,6 km/h (2 Bft)
15.07.2016 12:00 24,6 C 13,6 C 51 % 79 % 1023,6 hPa 0,0 l/m 2,1 km/h (1 Bft) W 0,27 h 1,3 UV-I 111 W/m 10,0 C 13,5 C 5,0 km/h (1 Bft)
15.07.2016 13:00 24,6 C 14,1 C 51 % 76 % 1023,8 hPa 0,0 l/m 3,1 km/h (1 Bft) W-SW 0,32 h 2,1 UV-I 162 W/m 9,9 C 14,0 C 7,0 km/h (2 Bft)
15.07.2016 14:00 24,6 C 14,2 C 52 % 78 % 1024,2 hPa 0,0 l/m 1,5 km/h (1 Bft) NW 0,30 h 1,5 UV-I 150 W/m 10,4 C 14,2 C 4,4 km/h (1 Bft)
15.07.2016 15:00 24,7 C 14,2 C 53 % 77 % 1024,4 hPa 0,0 l/m 2,1 km/h (1 Bft) W-NW 0,68 h 1,6 UV-I 173 W/m 10,2 C 14,1 C 5,0 km/h (1 Bft)
15.07.2016 16:00 24,9 C 15,7 C 53 % 68 % 1024,4 hPa 0,0 l/m 4,6 km/h (1 Bft) W-SW 0,93 h 2,5 UV-I 367 W/m 9,8 C 15,5 C 9,7 km/h (2 Bft)
15.07.2016 17:00 25,0 C 15,0 C 53 % 72 % 1024,5 hPa 0,0 l/m 1,5 km/h (1 Bft) W-NW 0,07 h 0,8 UV-I 68 W/m 9,9 C 15,0 C 3,7 km/h (1 Bft)
15.07.2016 18:00 25,0 C 14,8 C 54 % 76 % 1024,6 hPa 0,0 l/m 0,1 km/h (0 Bft) N-NO 0,28 h 0,8 UV-I 102 W/m 10,5 C 14,8 C 0,2 km/h (0 Bft)
15.07.2016 19:00 24,8 C 14,8 C 54 % 76 % 1024,5 hPa 0,0 l/m 0,1 km/h (0 Bft) N-NW 0,00 h 0,5 UV-I 74 W/m 10,7 C 14,8 C 0,2 km/h (0 Bft)
15.07.2016 20:00 24,8 C 14,3 C 54 % 79 % 1024,6 hPa 0,0 l/m 0,0 km/h (0 Bft) N 0,00 h 0,0 UV-I 15 W/m 10,8 C 14,3 C 0,0 km/h (0 Bft)
15.07.2016 21:00 24,7 C 13,5 C 54 % 81 % 1024,9 hPa 0,0 l/m 0,0 km/h (0 Bft) N 0,00 h 0,0 UV-I 0 W/m 10,4 C 13,5 C 0,0 km/h (0 Bft)
15.07.2016 22:00 24,8 C 12,3 C 54 % 84 % 1025,2 hPa 0,0 l/m 0,0 km/h (0 Bft) N 0,00 h 0,0 UV-I 0 W/m 9,7 C 12,3 C 0,0 km/h (0 Bft)
15.07.2016 23:00 24,8 C 10,7 C 54 % 89 % 1025,5 hPa 0,0 l/m 0,0 km/h (0 Bft) N 0,00 h 0,0 UV-I 0 W/m 9,0 C 10,7 C 0,0 km/h (0 Bft)
16.07.2016 00:00 24,7 C 10,1 C 54 % 92 % 1025,9 hPa 0,0 l/m 0,0 km/h (0 Bft) N 0,00 h 0,0 UV-I 0 W/m 8,8 C 10,1 C 0,0 km/h (0 Bft)
16.07.2016 01:00 24,5 C 10,2 C 55 % 92 % 1025,8 hPa 0,0 l/m 0,0 km/h (0 Bft) N 0,00 h 0,0 UV-I 0 W/m 9,0 C 10,2 C 0,0 km/h (0 Bft)
16.07.2016 02:00 24,4 C 10,2 C 55 % 93 % 1025,4 hPa 0,0 l/m 0,0 km/h (0 Bft) N 0,00 h 0,0 UV-I 0 W/m 9,1 C 10,2 C 0,0 km/h (0 Bft)
16.07.2016 03:00 24,4 C 9,8 C 55 % 92 % 1025,5 hPa 0,0 l/m 0,0 km/h (0 Bft) N 0,00 h 0,0 UV-I 0 W/m 8,6 C 9,8 C 0,0 km/h (0 Bft)
16.07.2016 04:00 24,4 C 9,3 C 55 % 94 % 1025,6 hPa 0,0 l/m 0,0 km/h (0 Bft) N 0,00 h 0,0 UV-I 0 W/m 8,3 C 9,3 C 0,1 km/h (0 Bft)
16.07.2016 05:00 24,3 C 9,3 C 56 % 94 % 1025,7 hPa 0,0 l/m 0,0 km/h (0 Bft) N 0,00 h 0,0 UV-I 10 W/m 8,4 C 9,3 C 0,0 km/h (0 Bft)
16.07.2016 06:00 24,3 C 9,7 C 56 % 95 % 1025,7 hPa 0,0 l/m 0,0 km/h (0 Bft) N 0,00 h 0,0 UV-I 47 W/m 8,9 C 9,7 C 0,0 km/h (0 Bft)
16.07.2016 07:00 24,3 C 10,9 C 56 % 94 % 1025,4 hPa 0,0 l/m 0,0 km/h (0 Bft) N 0,02 h 0,6 UV-I 93 W/m 9,9 C 10,9 C 0,0 km/h (0 Bft)
16.07.2016 08:00 24,4 C 12,8 C 56 % 86 % 1025,4 hPa 0,0 l/m 0,0 km/h (0 Bft) N 0,88 h 1,2 UV-I 213 W/m 10,6 C 12,8 C 0,0 km/h (0 Bft)
16.07.2016 09:00 24,7 C 15,5 C 56 % 76 % 1025,4 hPa 0,0 l/m 0,9 km/h (0 Bft) W-NW 1,00 h 2,4 UV-I 489 W/m 11,3 C 15,5 C 1,9 km/h (1 Bft)
16.07.2016 10:00 24,7 C 17,1 C 56 % 68 % 1025,2 hPa 0,0 l/m 4,2 km/h (1 Bft) W 0,75 h 2,5 UV-I 422 W/m 11,2 C 17,0 C 7,7 km/h (2 Bft)
16.07.2016 11:00 24,6 C 18,0 C 55 % 63 % 1025,0 hPa 0,0 l/m 3,2 km/h (1 Bft) W 1,00 h 3,7 UV-I 496 W/m 11,0 C 17,9 C 6,8 km/h (2 Bft)
16.07.2016 12:00 24,6 C 19,5 C 54 % 54 % 1024,5 hPa 0,0 l/m 4,9 km/h (1 Bft) W-SW 1,00 h 5,4 UV-I 687 W/m 9,8 C 19,3 C 10,6 km/h (2 Bft)
16.07.2016 13:00 24,6 C 20,8 C 52 % 49 % 1023,8 hPa 0,0 l/m 5,5 km/h (1 Bft) NW 1,00 h 5,6 UV-I 788 W/m 9,8 C 20,6 C 10,1 km/h (2 Bft)
16.07.2016 14:00 24,8 C 21,6 C 52 % 48 % 1023,3 hPa 0,0 l/m 4,3 km/h (1 Bft) NW 1,00 h 5,4 UV-I 732 W/m 10,2 C 21,5 C 9,1 km/h (2 Bft)
16.07.2016 15:00 24,8 C 22,0 C 51 % 48 % 1022,9 hPa 0,0 l/m 4,1 km/h (1 Bft) N-NW 1,00 h 4,5 UV-I 712 W/m 10,3 C 21,8 C 8,6 km/h (2 Bft)
16.07.2016 16:00 25,0 C 21,6 C 51 % 48 % 1022,6 hPa 0,0 l/m 5,2 km/h (1 Bft) NW 0,88 h 2,7 UV-I 414 W/m 10,2 C 21,4 C 9,5 km/h (2 Bft)
16.07.2016 17:00 24,9 C 21,3 C 50 % 49 % 1022,2 hPa 0,0 l/m 5,0 km/h (1 Bft) W-NW 0,97 h 1,6 UV-I 263 W/m 10,2 C 21,1 C 10,2 km/h (2 Bft)
16.07.2016 18:00 25,2 C 20,9 C 51 % 53 % 1022,0 hPa 0,0 l/m 6,3 km/h (2 Bft) NW 0,32 h 1,0 UV-I 134 W/m 10,8 C 20,6 C 10,6 km/h (2 Bft)
16.07.2016 19:00 25,2 C 20,0 C 52 % 58 % 1021,9 hPa 0,0 l/m 2,2 km/h (1 Bft) NW 0,02 h 0,6 UV-I 83 W/m 11,5 C 19,9 C 5,0 km/h (1 Bft)
16.07.2016 20:00 25,2 C 19,5 C 52 % 61 % 1021,9 hPa 0,0 l/m 2,3 km/h (1 Bft) W-NW 0,00 h 0,0 UV-I 31 W/m 11,8 C 19,5 C 5,1 km/h (1 Bft)
16.07.2016 21:00 25,3 C 18,6 C 52 % 64 % 1022,1 hPa 0,0 l/m 1,7 km/h (1 Bft) W 0,00 h 0,0 UV-I 0 W/m 11,7 C 18,6 C 3,6 km/h (1 Bft)
16.07.2016 22:00 25,2 C 18,0 C 52 % 68 % 1022,3 hPa 0,0 l/m 0,1 km/h (0 Bft) W 0,00 h 0,0 UV-I 0 W/m 11,9 C 18,0 C 0,2 km/h (0 Bft)
16.07.2016 23:00 25,1 C 17,1 C 52 % 75 % 1022,3 hPa 0,0 l/m 0,0 km/h (0 Bft) N 0,00 h 0,0 UV-I 0 W/m 12,6 C 17,1 C 0,0 km/h (0 Bft)
17.07.2016 00:00 24,9 C 16,5 C 53 % 80 % 1022,1 hPa 0,0 l/m 0,0 km/h (0 Bft) N 0,00 h 0,0 UV-I 0 W/m 13,0 C 16,5 C 0,0 km/h (0 Bft)
17.07.2016 01:00 25,1 C 16,0 C 53 % 82 % 1021,7 hPa 0,0 l/m 0,0 km/h (0 Bft) N 0,00 h 0,0 UV-I 0 W/m 13,0 C 16,0 C 0,0 km/h (0 Bft)
17.07.2016 02:00 25,3 C 15,5 C 53 % 84 % 1021,2 hPa 0,0 l/m 0,0 km/h (0 Bft) N 0,00 h 0,0 UV-I 0 W/m 12,9 C 15,5 C 0,0 km/h (0 Bft)
17.07.2016 03:00 25,4 C 15,3 C 54 % 86 % 1020,9 hPa 0,0 l/m 0,0 km/h (0 Bft) N 0,00 h 0,0 UV-I 0 W/m 12,9 C 15,3 C 0,0 km/h (0 Bft)
17.07.2016 04:00 25,4 C 15,4 C 54 % 87 % 1020,7 hPa 0,0 l/m 0,0 km/h (0 Bft) N 0,00 h 0,0 UV-I 0 W/m 13,2 C 15,4 C 0,1 km/h (0 Bft)
17.07.2016 05:00 25,3 C 15,5 C 54 % 87 % 1020,8 hPa 0,0 l/m 0,3 km/h (0 Bft) NW 0,00 h 0,0 UV-I 7 W/m 13,4 C 15,5 C 1,0 km/h (0 Bft)
17.07.2016 06:00 25,3 C 15,9 C 55 % 87 % 1020,7 hPa 0,0 l/m 0,4 km/h (0 Bft) W 0,00 h 0,0 UV-I 22 W/m 13,7 C 15,9 C 0,6 km/h (0 Bft)
17.07.2016 07:00 25,3 C 16,4 C 55 % 87 % 1020,9 hPa 0,0 l/m 0,5 km/h (0 Bft) W-NW 0,00 h 0,5 UV-I 58 W/m 14,2 C 16,4 C 1,1 km/h (0 Bft)
17.07.2016 08:00 25,1 C 17,2 C 55 % 85 % 1020,9 hPa 0,0 l/m 1,8 km/h (1 Bft) W 0,00 h 0,7 UV-I 109 W/m 14,7 C 17,2 C 3,1 km/h (1 Bft)
17.07.2016 09:00 25,0 C 17,4 C 55 % 87 % 1020,8 hPa 0,2 l/m 3,5 km/h (1 Bft) W-NW 0,28 h 1,0 UV-I 129 W/m 15,3 C 17,4 C 5,6 km/h (1 Bft)
17.07.2016 10:00 25,0 C 17,2 C 56 % 92 % 1020,6 hPa 0,6 l/m 1,9 km/h (1 Bft) W 0,13 h 1,1 UV-I 118 W/m 15,9 C 17,2 C 4,2 km/h (1 Bft)
17.07.2016 11:00 25,1 C 17,4 C 57 % 93 % 1020,5 hPa 0,0 l/m 2,4 km/h (1 Bft) W 0,38 h 1,5 UV-I 149 W/m 16,3 C 17,4 C 4,7 km/h (1 Bft)
17.07.2016 12:00 25,2 C 18,8 C 58 % 90 % 1020,3 hPa 0,0 l/m 0,5 km/h (0 Bft) S 1,00 h 3,7 UV-I 391 W/m 17,2 C 18,8 C 1,4 km/h (1 Bft)
17.07.2016 13:00 25,1 C 19,7 C 58 % 86 % 1019,8 hPa 0,0 l/m 0,9 km/h (0 Bft) W 0,60 h 2,6 UV-I 188 W/m 17,3 C 19,7 C 1,8 km/h (1 Bft)
17.07.2016 14:00 25,3 C 21,4 C 58 % 77 % 1019,3 hPa 0,0 l/m 4,4 km/h (1 Bft) W 1,00 h 3,4 UV-I 319 W/m 17,2 C 21,2 C 9,2 km/h (2 Bft)
17.07.2016 15:00 24,9 C 21,4 C 58 % 73 % 1018,9 hPa 0,2 l/m 3,9 km/h (1 Bft) W-SW 0,62 h 1,7 UV-I 178 W/m 16,4 C 21,2 C 8,2 km/h (2 Bft)
17.07.2016 16:00 24,8 C 22,1 C 58 % 71 % 1018,6 hPa 0,0 l/m 4,2 km/h (1 Bft) W-SW 0,83 h 2,0 UV-I 238 W/m 16,6 C 21,9 C 8,0 km/h (2 Bft)
17.07.2016 17:00 24,9 C 21,1 C 58 % 78 % 1018,5 hPa 0,0 l/m 2,9 km/h (1 Bft) W-SW 0,72 h 1,3 UV-I 181 W/m 17,1 C 20,9 C 5,9 km/h (2 Bft)
17.07.2016 18:00 25,2 C 20,3 C 59 % 81 % 1018,7 hPa 0,0 l/m 3,3 km/h (1 Bft) N-NO 0,17 h 0,7 UV-I 117 W/m 16,9 C 20,2 C 6,9 km/h (2 Bft)
17.07.2016 19:00 25,2 C 20,1 C 59 % 82 % 1018,8 hPa 0,0 l/m 2,4 km/h (1 Bft) N-NO 0,00 h 0,5 UV-I 75 W/m 16,9 C 20,0 C 5,4 km/h (1 Bft)
17.07.2016 20:00 24,8 C 19,2 C 60 % 86 % 1019,0 hPa 0,0 l/m 0,4 km/h (0 Bft) N 0,00 h 0,0 UV-I 25 W/m 16,8 C 19,2 C 1,5 km/h (1 Bft)
17.07.2016 21:00 24,9 C 18,4 C 59 % 88 % 1019,2 hPa 0,0 l/m 0,0 km/h (0 Bft) N 0,00 h 0,0 UV-I 0 W/m 16,5 C 18,4 C 0,0 km/h (0 Bft)
17.07.2016 22:00 25,3 C 17,8 C 59 % 92 % 1019,5 hPa 0,0 l/m 0,0 km/h (0 Bft) N 0,00 h 0,0 UV-I 0 W/m 16,5 C 17,8 C 0,0 km/h (0 Bft)
17.07.2016 23:00 25,1 C 17,6 C 59 % 93 % 1019,6 hPa 0,0 l/m 0,0 km/h (0 Bft) N 0,00 h 0,0 UV-I 0 W/m 16,5 C 17,6 C 0,0 km/h (0 Bft)
Min-Datum _ 16.07.16 15.07.16 15.07.16 11.07.16 11.07.16 - 11.07.16 - - - - 16.07.16 14.07.16 11.07.16
_ Min-Zeit 07:41 01:55 10:54 15:08 16:08 - 00:00 - - - - 12:41 13:15 00:00
Minimum _ 24,2 C 9,2 C 50 % 37 % 1008,9 hPa - 0,0 km/h (0 Bft) - - - - 8,0 C 5,3 C 0,0 km/h (0 Bft)
Max-Datum _ 11.07.16 11.07.16 11.07.16 14.07.16 16.07.16 14.07.16 14.07.16 - 13.07.16 11.07.16 11.07.16 11.07.16 11.07.16 17.07.16
_ Max-Zeit 18:56 15:58 22:48 01:24 00:22 06:19 13:15 - 13:46 13:37 13:37 10:50 15:15 17:09
Maximum _ 26,5 C 30,8 C 61 % 97 % 1026,1 hPa 2,0 l/m 22,5 km/h
NW (4 Bft)
- 0,05 h 7,9 UV-I 1088 W/m 18,8 C 30,7 C 37,0 km/h
W-SW (5 Bft)
Durchschnitt _ 25,2 C 16,6 C 56 % 82 % 1016,4 hPa #20,8 l/m 2,1 km/h (1 Bft) W #46:22 h 2,1 UV-I 205 W/m 13,1 C 16,4 C 4,3 km/h (1 Bft)